Nordheim, Texas
Current Conditions -  °F | °C
As of 4:35 PM on Monday 24 Nov 2014 (Local Time) from KBEA Reporting Station
Clear Clear  
Wind Chill: 65°   Ceiling: Unl
Heat Index: 65°   Visibility: 10mi
Dew Point: 33°   Wind: 9mph
Humidity: 30%   Direction: 360°N
Pressure: 30.02"   Gusts: NA
Location:  28.92°N, 97.61°W
Report Text: KBEA 242235Z AUTO 36008KT 10SM CLR 18/01 A3002 RMK AO2 T01840006
Loading
Personal Weather Stations






























Interactive Weather Map New forecast layout! Learn more

10-Day Weather Forecast

Advertisements
Track Severe Weather on mobile